createdAt,value
2018-06-30T00:00:04.109Z,64.66
2018-06-30T00:00:35.713Z,64.66
2018-06-30T00:01:07.313Z,64.68
2018-06-30T00:01:38.916Z,64.68
2018-06-30T00:02:10.525Z,64.80
2018-06-30T00:02:42.113Z,64.73
2018-06-30T00:03:13.717Z,64.77
2018-06-30T00:03:45.316Z,64.86
2018-06-30T00:04:16.909Z,64.89
2018-06-30T00:04:48.533Z,64.89
2018-06-30T00:05:20.123Z,64.93
2018-06-30T00:05:51.709Z,64.91
2018-06-30T00:06:23.284Z,64.95
2018-06-30T00:06:54.885Z,65.01
2018-06-30T00:07:26.468Z,65.02
2018-06-30T00:07:58.078Z,65.06
2018-06-30T00:08:29.656Z,65.10
2018-06-30T00:09:01.248Z,65.04
2018-06-30T00:09:32.824Z,65.13
2018-06-30T00:10:04.425Z,65.13
2018-06-30T00:10:36.033Z,65.19
2018-06-30T00:11:07.617Z,65.31
2018-06-30T00:11:39.202Z,65.34
2018-06-30T00:12:10.785Z,65.37
2018-06-30T00:12:42.388Z,65.40
2018-06-30T00:13:13.988Z,65.49
2018-06-30T00:13:45.604Z,65.51
2018-06-30T00:14:17.200Z,65.50
2018-06-30T00:14:48.811Z,65.52
2018-06-30T00:15:20.421Z,65.51
2018-06-30T00:15:51.996Z,65.66
2018-06-30T00:16:23.568Z,65.78
2018-06-30T00:16:55.200Z,65.96
2018-06-30T00:17:26.845Z,65.93
2018-06-30T00:17:58.419Z,65.92
2018-06-30T00:18:30.016Z,65.98
2018-06-30T00:19:01.601Z,66.04
2018-06-30T00:19:33.182Z,66.10
2018-06-30T00:20:04.765Z,66.14
2018-06-30T00:20:36.340Z,66.10
2018-06-30T00:21:07.972Z,66.18
2018-06-30T00:21:39.558Z,66.32
2018-06-30T00:22:11.138Z,66.41
2018-06-30T00:22:42.741Z,66.34
2018-06-30T00:23:14.331Z,66.46
2018-06-30T00:23:45.920Z,66.61
2018-06-30T00:24:17.529Z,66.75
2018-06-30T00:24:49.118Z,66.67
2018-06-30T00:25:20.688Z,66.77
2018-06-30T00:25:52.276Z,66.86
2018-06-30T00:26:23.926Z,66.77
2018-06-30T00:26:55.516Z,66.86
2018-06-30T00:27:27.121Z,66.99
2018-06-30T00:27:58.729Z,67.09
2018-06-30T00:28:30.353Z,67.23
2018-06-30T00:29:01.938Z,67.25
2018-06-30T00:29:33.517Z,67.33
2018-06-30T00:30:05.124Z,67.35
2018-06-30T00:30:36.720Z,67.42
2018-06-30T00:31:08.306Z,67.70
2018-06-30T00:31:39.895Z,67.46
2018-06-30T00:32:11.505Z,67.67
2018-06-30T00:32:43.108Z,67.62
2018-06-30T00:33:14.680Z,67.75
2018-06-30T00:33:46.276Z,67.79
2018-06-30T00:34:17.885Z,67.85
2018-06-30T00:34:49.484Z,67.87
2018-06-30T00:35:21.128Z,68.04
2018-06-30T00:35:52.704Z,67.97
2018-06-30T00:36:24.300Z,67.92
2018-06-30T00:36:55.909Z,68.06
2018-06-30T00:37:27.562Z,68.06
2018-06-30T00:37:59.229Z,68.26
2018-06-30T00:38:30.833Z,68.72
2018-06-30T00:39:02.454Z,68.48
2018-06-30T00:39:34.038Z,68.55
2018-06-30T00:40:05.622Z,68.94
2018-06-30T00:40:37.215Z,68.95
2018-06-30T00:41:08.822Z,69.28
2018-06-30T00:41:40.477Z,68.83
2018-06-30T00:42:12.065Z,69.26
2018-06-30T00:42:43.669Z,69.29
2018-06-30T00:43:15.300Z,69.33
2018-06-30T00:43:46.881Z,69.53
2018-06-30T00:44:18.476Z,69.41
2018-06-30T00:44:50.052Z,69.40
2018-06-30T00:45:21.620Z,69.58
2018-06-30T00:45:53.222Z,69.27
2018-06-30T00:46:24.814Z,69.55
2018-06-30T00:46:56.401Z,69.72
2018-06-30T00:47:28.021Z,69.50
2018-06-30T00:47:59.595Z,69.70
2018-06-30T00:48:31.229Z,69.61
2018-06-30T00:49:02.869Z,69.76
2018-06-30T00:49:34.443Z,69.55
2018-06-30T00:50:06.045Z,69.66
2018-06-30T00:50:37.626Z,69.36
2018-06-30T00:51:09.230Z,69.71
2018-06-30T00:51:40.846Z,70.12
2018-06-30T00:52:12.434Z,69.93
2018-06-30T00:52:44.004Z,70.06
2018-06-30T00:53:15.613Z,69.97
2018-06-30T00:53:47.217Z,70.01
2018-06-30T00:54:18.826Z,70.22
2018-06-30T00:54:50.407Z,70.02
2018-06-30T00:55:21.990Z,70.09
2018-06-30T00:55:53.564Z,69.78
2018-06-30T00:56:25.139Z,69.91
2018-06-30T00:56:56.711Z,69.76
2018-06-30T00:57:28.358Z,70.10
2018-06-30T00:57:59.966Z,70.16
2018-06-30T00:58:31.549Z,69.65
2018-06-30T00:59:03.134Z,70.22
2018-06-30T00:59:34.741Z,70.10
2018-06-30T01:00:06.328Z,69.81
2018-06-30T01:00:37.933Z,70.03
2018-06-30T01:01:09.551Z,69.97
2018-06-30T01:01:41.133Z,70.11
2018-06-30T01:02:12.738Z,70.25
2018-06-30T01:02:44.342Z,70.48
2018-06-30T01:03:15.939Z,70.48
2018-06-30T01:03:47.537Z,70.87
2018-06-30T01:04:19.117Z,70.57
2018-06-30T01:04:50.688Z,70.72
2018-06-30T01:05:22.316Z,70.28
2018-06-30T01:05:53.933Z,70.32
2018-06-30T01:06:25.508Z,70.61
2018-06-30T01:06:57.089Z,70.24
2018-06-30T01:07:28.674Z,70.35
2018-06-30T01:08:00.276Z,70.25
2018-06-30T01:08:31.907Z,70.27
2018-06-30T01:09:03.520Z,70.30
2018-06-30T01:09:35.110Z,70.30
2018-06-30T01:10:06.690Z,70.25
2018-06-30T01:10:38.313Z,70.43
2018-06-30T01:11:09.888Z,70.37
2018-06-30T01:11:41.494Z,70.60
2018-06-30T01:12:13.083Z,70.58
2018-06-30T01:12:44.669Z,70.74
2018-06-30T01:13:16.273Z,70.41
2018-06-30T01:13:47.930Z,70.27
2018-06-30T01:14:19.604Z,70.12
2018-06-30T01:14:51.209Z,70.18
2018-06-30T01:15:22.780Z,70.13
2018-06-30T01:15:54.466Z,69.44
2018-06-30T01:16:26.060Z,69.90
2018-06-30T01:16:57.665Z,69.66
2018-06-30T01:17:29.243Z,69.60
2018-06-30T01:18:00.849Z,69.50
2018-06-30T01:18:32.504Z,69.48
2018-06-30T01:19:04.114Z,69.33
2018-06-30T01:19:35.701Z,69.44
2018-06-30T01:20:07.284Z,69.33
2018-06-30T01:20:38.873Z,69.27
2018-06-30T01:21:10.459Z,69.23
2018-06-30T01:21:42.041Z,69.20
2018-06-30T01:22:13.669Z,69.04
2018-06-30T01:22:45.282Z,69.07
2018-06-30T01:23:16.865Z,69.03
2018-06-30T01:23:48.440Z,68.98
2018-06-30T01:24:20.022Z,68.99
2018-06-30T01:24:51.616Z,68.94
2018-06-30T01:25:23.214Z,69.05
2018-06-30T01:25:54.826Z,69.00
2018-06-30T01:26:26.489Z,68.93
2018-06-30T01:26:58.069Z,68.94
2018-06-30T01:27:29.675Z,68.92
2018-06-30T01:28:01.281Z,68.90
2018-06-30T01:28:32.860Z,68.95
2018-06-30T01:29:04.482Z,68.84
2018-06-30T01:29:36.061Z,68.73
2018-06-30T01:30:07.666Z,68.83
2018-06-30T01:30:39.271Z,68.84
2018-06-30T01:31:10.909Z,68.75
2018-06-30T01:31:42.527Z,68.92
2018-06-30T01:32:14.177Z,68.82
2018-06-30T01:32:45.785Z,69.03
2018-06-30T01:33:17.397Z,68.91
2018-06-30T01:33:48.972Z,68.90
2018-06-30T01:34:20.563Z,69.02
2018-06-30T01:34:52.136Z,68.96
2018-06-30T01:35:23.717Z,69.05
2018-06-30T01:35:55.302Z,68.98
2018-06-30T01:36:26.906Z,69.05
2018-06-30T01:36:58.522Z,69.09
2018-06-30T01:37:30.182Z,69.04
2018-06-30T01:38:01.781Z,68.91
2018-06-30T01:38:33.370Z,68.88
2018-06-30T01:39:04.977Z,68.74
2018-06-30T01:39:36.590Z,68.87
2018-06-30T01:40:08.178Z,68.93
2018-06-30T01:40:39.785Z,69.21
2018-06-30T01:41:11.394Z,68.90
2018-06-30T01:41:42.968Z,68.84
2018-06-30T01:42:14.553Z,68.84
2018-06-30T01:42:46.193Z,68.75
2018-06-30T01:43:17.767Z,68.76
2018-06-30T01:43:49.378Z,68.77
2018-06-30T01:44:20.974Z,68.79
2018-06-30T01:44:52.577Z,68.92
2018-06-30T01:45:24.156Z,68.77
2018-06-30T01:45:55.753Z,68.78
2018-06-30T01:46:27.356Z,68.92
2018-06-30T01:46:58.923Z,68.73
2018-06-30T01:47:30.524Z,68.83
2018-06-30T01:48:02.158Z,68.64
2018-06-30T01:48:33.761Z,68.64
2018-06-30T01:49:05.372Z,68.72
2018-06-30T01:49:36.983Z,68.64
2018-06-30T01:50:08.560Z,68.74
2018-06-30T01:50:40.165Z,68.68
2018-06-30T01:51:11.757Z,68.59
2018-06-30T01:51:43.354Z,68.56
2018-06-30T01:52:14.927Z,68.61
2018-06-30T01:52:46.560Z,68.60
2018-06-30T01:53:18.149Z,68.62
2018-06-30T01:53:49.753Z,68.58
2018-06-30T01:54:21.366Z,68.66
2018-06-30T01:54:53.018Z,68.68
2018-06-30T01:55:24.605Z,68.59
2018-06-30T01:55:56.180Z,68.61
2018-06-30T01:56:27.785Z,68.48
2018-06-30T01:56:59.397Z,68.59
2018-06-30T01:57:30.981Z,68.54
2018-06-30T01:58:02.566Z,68.59
2018-06-30T01:58:34.169Z,68.63
2018-06-30T01:59:05.769Z,68.51
2018-06-30T01:59:37.436Z,68.52
2018-06-30T02:00:09.034Z,68.54
2018-06-30T02:00:40.665Z,68.50
2018-06-30T02:01:12.277Z,68.51
2018-06-30T02:01:43.851Z,68.55
2018-06-30T02:02:15.444Z,68.56
2018-06-30T02:02:47.039Z,68.51
2018-06-30T02:03:18.647Z,68.48
2018-06-30T02:03:50.253Z,68.62
2018-06-30T02:04:21.858Z,68.46
2018-06-30T02:04:53.486Z,68.45
2018-06-30T02:05:25.137Z,68.49
2018-06-30T02:05:56.711Z,68.35
2018-06-30T02:06:28.337Z,68.35
2018-06-30T02:06:59.946Z,68.48
2018-06-30T02:07:31.544Z,68.41
2018-06-30T02:08:03.149Z,68.29
2018-06-30T02:08:34.762Z,68.39
2018-06-30T02:09:06.349Z,68.30
2018-06-30T02:09:37.985Z,68.32
2018-06-30T02:10:09.555Z,68.26
2018-06-30T02:10:41.157Z,68.35
2018-06-30T02:11:12.749Z,68.32
2018-06-30T02:11:44.330Z,68.35
2018-06-30T02:12:15.917Z,68.37
2018-06-30T02:12:47.497Z,68.33
2018-06-30T02:13:19.101Z,68.33
2018-06-30T02:13:50.679Z,68.33
2018-06-30T02:14:22.281Z,68.35
2018-06-30T02:14:53.900Z,68.31
2018-06-30T02:15:25.545Z,68.25
2018-06-30T02:15:57.134Z,68.26
2018-06-30T02:16:28.746Z,68.37
2018-06-30T02:17:00.324Z,68.60
2018-06-30T02:17:31.934Z,68.59
2018-06-30T02:18:03.518Z,68.49
2018-06-30T02:18:35.093Z,68.32
2018-06-30T02:19:06.701Z,68.26
2018-06-30T02:19:38.289Z,68.31
2018-06-30T02:20:09.934Z,68.34
2018-06-30T02:20:41.532Z,68.36
2018-06-30T02:21:13.137Z,68.39
2018-06-30T02:21:44.809Z,68.27
2018-06-30T02:22:16.361Z,68.30
2018-06-30T02:22:48.000Z,68.42
2018-06-30T02:23:19.665Z,68.38
2018-06-30T02:23:51.251Z,68.36
2018-06-30T02:24:22.829Z,68.44
2018-06-30T02:24:54.435Z,68.47
2018-06-30T02:25:26.041Z,68.46
2018-06-30T02:25:57.625Z,68.42
2018-06-30T02:26:29.206Z,68.39
2018-06-30T02:27:00.814Z,68.41
2018-06-30T02:27:32.396Z,68.42
2018-06-30T02:28:03.981Z,68.48
2018-06-30T02:28:35.605Z,68.43
2018-06-30T02:29:07.202Z,68.48
2018-06-30T02:29:38.782Z,68.45
2018-06-30T02:30:10.386Z,68.47
2018-06-30T02:30:41.978Z,68.41
2018-06-30T02:31:13.561Z,68.37
2018-06-30T02:31:45.197Z,68.41
2018-06-30T02:32:16.830Z,68.43
2018-06-30T02:32:48.441Z,68.46
2018-06-30T02:33:20.030Z,68.41
2018-06-30T02:33:51.624Z,68.41
2018-06-30T02:34:23.224Z,68.39
2018-06-30T02:34:54.837Z,68.43
2018-06-30T02:35:26.450Z,68.46
2018-06-30T02:35:58.062Z,68.48
2018-06-30T02:36:29.668Z,68.43
2018-06-30T02:37:01.312Z,68.45
2018-06-30T02:37:32.906Z,68.46
2018-06-30T02:38:04.571Z,68.36
2018-06-30T02:38:36.150Z,68.43
2018-06-30T02:39:07.815Z,68.32
2018-06-30T02:39:39.385Z,68.36
2018-06-30T02:40:10.970Z,68.43
2018-06-30T02:40:42.565Z,68.32
2018-06-30T02:41:14.146Z,68.37
2018-06-30T02:41:45.715Z,68.38
2018-06-30T02:42:17.285Z,68.39
2018-06-30T02:42:48.894Z,68.44
2018-06-30T02:43:20.472Z,68.44
2018-06-30T02:43:52.054Z,68.48
2018-06-30T02:44:23.647Z,68.40
2018-06-30T02:44:55.268Z,68.38
2018-06-30T02:45:26.844Z,68.39
2018-06-30T02:45:58.524Z,68.44
2018-06-30T02:46:30.074Z,68.36
2018-06-30T02:47:01.656Z,68.41
2018-06-30T02:47:33.249Z,68.38
2018-06-30T02:48:04.858Z,68.38
2018-06-30T02:48:36.441Z,68.45
2018-06-30T02:49:08.036Z,68.40
2018-06-30T02:49:39.644Z,68.37
2018-06-30T02:50:11.223Z,68.34
2018-06-30T02:50:42.805Z,68.42
2018-06-30T02:51:14.389Z,68.41
2018-06-30T02:51:45.974Z,68.44
2018-06-30T02:52:17.585Z,68.40
2018-06-30T02:52:49.183Z,68.41
2018-06-30T02:53:20.794Z,68.40
2018-06-30T02:53:52.378Z,68.33
2018-06-30T02:54:24.012Z,68.39
2018-06-30T02:54:55.621Z,68.44
2018-06-30T02:55:27.205Z,68.42
2018-06-30T02:55:58.843Z,68.35
2018-06-30T02:56:30.422Z,68.37
2018-06-30T02:57:02.042Z,68.35
2018-06-30T02:57:33.636Z,68.36
2018-06-30T02:58:05.212Z,68.36
2018-06-30T02:58:36.794Z,68.35
2018-06-30T02:59:08.433Z,68.32
2018-06-30T02:59:40.004Z,68.35
2018-06-30T03:00:11.583Z,68.35
2018-06-30T03:00:43.156Z,68.39
2018-06-30T03:01:14.797Z,68.32
2018-06-30T03:01:46.378Z,68.33
2018-06-30T03:02:17.949Z,68.36
2018-06-30T03:02:49.609Z,68.28
2018-06-30T03:03:21.189Z,68.39
2018-06-30T03:03:52.780Z,68.41
2018-06-30T03:04:24.356Z,68.35
2018-06-30T03:04:55.973Z,68.36
2018-06-30T03:05:27.529Z,68.41
2018-06-30T03:05:59.109Z,68.58
2018-06-30T03:06:30.695Z,68.52
2018-06-30T03:07:02.307Z,68.48
2018-06-30T03:07:33.922Z,68.51
2018-06-30T03:08:05.569Z,68.54
2018-06-30T03:08:37.181Z,68.43
2018-06-30T03:09:08.769Z,68.51
2018-06-30T03:09:40.368Z,68.52
2018-06-30T03:10:11.958Z,68.58
2018-06-30T03:10:43.538Z,68.63
2018-06-30T03:11:15.143Z,68.72
2018-06-30T03:11:46.991Z,68.75
2018-06-30T03:12:18.589Z,68.83
2018-06-30T03:12:50.189Z,68.77
2018-06-30T03:13:21.781Z,68.82
2018-06-30T03:13:53.385Z,68.85
2018-06-30T03:14:24.990Z,68.85
2018-06-30T03:14:56.601Z,68.92
2018-06-30T03:15:28.190Z,69.03
2018-06-30T03:15:59.774Z,69.08
2018-06-30T03:16:31.381Z,69.00
2018-06-30T03:17:02.990Z,69.04
2018-06-30T03:17:34.588Z,69.01
2018-06-30T03:18:06.193Z,69.05
2018-06-30T03:18:37.787Z,69.11
2018-06-30T03:19:09.361Z,69.14
2018-06-30T03:19:40.933Z,69.07
2018-06-30T03:20:12.527Z,69.12
2018-06-30T03:20:44.153Z,69.07
2018-06-30T03:21:15.786Z,69.14
2018-06-30T03:21:47.379Z,69.20
2018-06-30T03:22:18.957Z,69.19
2018-06-30T03:22:50.536Z,69.13
2018-06-30T03:23:22.118Z,69.08
2018-06-30T03:23:53.692Z,69.18
2018-06-30T03:24:25.273Z,69.25
2018-06-30T03:24:56.857Z,69.17
2018-06-30T03:25:28.517Z,69.25
2018-06-30T03:26:00.104Z,69.23
2018-06-30T03:26:31.690Z,69.29
2018-06-30T03:27:03.303Z,69.28
2018-06-30T03:27:34.899Z,69.31
2018-06-30T03:28:06.505Z,69.30
2018-06-30T03:28:38.117Z,69.51
2018-06-30T03:29:09.729Z,69.50
2018-06-30T03:29:41.317Z,69.60
2018-06-30T03:30:12.902Z,69.62
2018-06-30T03:30:44.531Z,69.68
2018-06-30T03:31:16.105Z,69.61
2018-06-30T03:31:47.731Z,69.51
2018-06-30T03:32:19.341Z,69.65
2018-06-30T03:32:50.973Z,69.67
2018-06-30T03:33:22.573Z,69.74
2018-06-30T03:33:54.176Z,69.62
2018-06-30T03:34:25.757Z,69.74
2018-06-30T03:34:57.347Z,69.80
2018-06-30T03:35:28.953Z,69.86
2018-06-30T03:36:00.541Z,69.92
2018-06-30T03:36:32.142Z,70.02
2018-06-30T03:37:03.734Z,70.07
2018-06-30T03:37:35.314Z,70.10
2018-06-30T03:38:06.946Z,70.13
2018-06-30T03:38:38.564Z,70.20
2018-06-30T03:39:10.162Z,70.36
2018-06-30T03:39:41.735Z,70.56
2018-06-30T03:40:13.322Z,70.35
2018-06-30T03:40:44.926Z,70.41
2018-06-30T03:41:16.538Z,70.50
2018-06-30T03:41:48.150Z,70.50
2018-06-30T03:42:19.748Z,70.47
2018-06-30T03:42:51.385Z,70.54
2018-06-30T03:43:23.014Z,70.48
2018-06-30T03:43:54.609Z,70.67
2018-06-30T03:44:26.203Z,70.83
2018-06-30T03:44:57.789Z,70.94
2018-06-30T03:45:29.397Z,71.04
2018-06-30T03:46:01.026Z,71.14
2018-06-30T03:46:32.620Z,71.15
2018-06-30T03:47:04.234Z,71.67
2018-06-30T03:47:35.867Z,71.78
2018-06-30T03:48:07.509Z,71.40
2018-06-30T03:48:39.120Z,71.55
2018-06-30T03:49:10.701Z,71.45
2018-06-30T03:49:42.295Z,71.39
2018-06-30T03:50:13.901Z,71.53
2018-06-30T03:50:45.517Z,71.25
2018-06-30T03:51:17.110Z,71.36
2018-06-30T03:51:48.713Z,71.44
2018-06-30T03:52:20.301Z,71.51
2018-06-30T03:52:51.876Z,71.34
2018-06-30T03:53:23.501Z,71.45
2018-06-30T03:53:55.077Z,71.34
2018-06-30T03:54:26.687Z,71.24
2018-06-30T03:54:58.337Z,71.13
2018-06-30T03:55:29.945Z,71.55
2018-06-30T03:56:01.524Z,71.35
2018-06-30T03:56:33.110Z,71.39
2018-06-30T03:57:04.704Z,71.64
2018-06-30T03:57:36.353Z,71.93
2018-06-30T03:58:07.951Z,72.01
2018-06-30T03:58:39.537Z,71.51
2018-06-30T03:59:11.136Z,71.78
2018-06-30T03:59:42.735Z,71.90
2018-06-30T04:00:14.318Z,71.82
2018-06-30T04:00:45.916Z,71.57
2018-06-30T04:01:17.534Z,71.67
2018-06-30T04:01:49.122Z,71.60
2018-06-30T04:02:20.730Z,71.75
2018-06-30T04:02:52.381Z,71.64
2018-06-30T04:03:23.965Z,71.56
2018-06-30T04:03:55.557Z,71.84
2018-06-30T04:04:27.152Z,71.68
2018-06-30T04:04:58.737Z,71.69
2018-06-30T04:05:30.342Z,71.62
2018-06-30T04:06:01.925Z,71.67
2018-06-30T04:06:33.529Z,71.68
2018-06-30T04:07:05.142Z,71.62
2018-06-30T04:07:36.801Z,71.64
2018-06-30T04:08:08.446Z,71.80
2018-06-30T04:08:40.053Z,71.79
2018-06-30T04:09:11.632Z,71.81
2018-06-30T04:09:43.221Z,71.40
2018-06-30T04:10:14.791Z,71.61
2018-06-30T04:10:46.388Z,71.47
2018-06-30T04:11:17.998Z,71.62
2018-06-30T04:11:49.607Z,71.64
2018-06-30T04:12:21.197Z,71.40
2018-06-30T04:12:52.777Z,71.57
2018-06-30T04:13:24.397Z,71.56
2018-06-30T04:13:55.967Z,71.25
2018-06-30T04:14:27.569Z,71.43
2018-06-30T04:14:59.196Z,71.43
2018-06-30T04:15:30.800Z,71.40
2018-06-30T04:16:02.393Z,71.48
2018-06-30T04:16:33.969Z,71.46
2018-06-30T04:17:05.578Z,71.46
2018-06-30T04:17:37.151Z,71.57
2018-06-30T04:18:08.728Z,71.30
2018-06-30T04:18:40.300Z,71.41
2018-06-30T04:19:11.869Z,71.21
2018-06-30T04:19:43.454Z,71.33
2018-06-30T04:20:15.098Z,71.33
2018-06-30T04:20:46.710Z,71.38
2018-06-30T04:21:18.294Z,71.22
2018-06-30T04:21:49.927Z,71.31
2018-06-30T04:22:21.533Z,71.36
2018-06-30T04:22:53.112Z,71.15
2018-06-30T04:23:24.703Z,71.33
2018-06-30T04:23:56.286Z,71.24
2018-06-30T04:24:27.906Z,71.19
2018-06-30T04:24:59.509Z,71.31
2018-06-30T04:25:31.150Z,71.36
2018-06-30T04:26:02.741Z,71.30
2018-06-30T04:26:34.336Z,71.31
2018-06-30T04:27:05.986Z,71.22
2018-06-30T04:27:37.598Z,71.24
2018-06-30T04:28:09.176Z,71.14
2018-06-30T04:28:40.773Z,71.10
2018-06-30T04:29:12.378Z,71.20
2018-06-30T04:29:43.976Z,71.33
2018-06-30T04:30:15.625Z,71.09
2018-06-30T04:30:47.200Z,71.13
2018-06-30T04:31:18.795Z,71.09
2018-06-30T04:31:50.368Z,71.15
2018-06-30T04:32:21.956Z,71.04
2018-06-30T04:32:53.560Z,71.24
2018-06-30T04:33:25.132Z,71.20
2018-06-30T04:33:56.721Z,71.22
2018-06-30T04:34:28.306Z,71.17
2018-06-30T04:34:59.950Z,71.22
2018-06-30T04:35:31.552Z,71.04
2018-06-30T04:36:03.138Z,71.12
2018-06-30T04:36:34.762Z,71.16
2018-06-30T04:37:06.366Z,71.17
2018-06-30T04:37:37.982Z,71.19
2018-06-30T04:38:09.575Z,71.21
2018-06-30T04:38:41.187Z,71.17
2018-06-30T04:39:12.769Z,71.12
2018-06-30T04:39:44.354Z,71.18
2018-06-30T04:40:15.929Z,71.06
2018-06-30T04:40:47.529Z,71.18
2018-06-30T04:41:19.110Z,71.28
2018-06-30T04:41:50.717Z,71.19
2018-06-30T04:42:22.354Z,71.26
2018-06-30T04:42:54.010Z,71.13
2018-06-30T04:43:25.593Z,71.14
2018-06-30T04:43:57.170Z,71.25
2018-06-30T04:44:28.753Z,71.42
2018-06-30T04:45:00.322Z,71.22
2018-06-30T04:45:31.961Z,71.28
2018-06-30T04:46:03.541Z,70.99
2018-06-30T04:46:35.131Z,71.30
2018-06-30T04:47:06.721Z,70.97
2018-06-30T04:47:38.366Z,71.05
2018-06-30T04:48:09.966Z,71.07
2018-06-30T04:48:41.540Z,71.02
2018-06-30T04:49:13.145Z,71.06
2018-06-30T04:49:44.753Z,71.14
2018-06-30T04:50:16.337Z,70.97
2018-06-30T04:50:47.918Z,71.07
2018-06-30T04:51:19.497Z,71.11
2018-06-30T04:51:51.085Z,71.10
2018-06-30T04:52:22.694Z,71.21
2018-06-30T04:52:54.325Z,71.05
2018-06-30T04:53:25.907Z,70.98
2018-06-30T04:53:57.480Z,71.20
2018-06-30T04:54:29.082Z,71.03
2018-06-30T04:55:00.665Z,71.20
2018-06-30T04:55:32.252Z,71.14
2018-06-30T04:56:03.842Z,71.19
2018-06-30T04:56:35.497Z,71.13
2018-06-30T04:57:07.082Z,71.27
2018-06-30T04:57:38.734Z,71.06
2018-06-30T04:58:10.309Z,71.04
2018-06-30T04:58:41.922Z,71.12
2018-06-30T04:59:13.530Z,71.07
2018-06-30T04:59:45.132Z,70.95
2018-06-30T05:00:16.741Z,71.04
2018-06-30T05:00:48.329Z,71.11
2018-06-30T05:01:19.909Z,71.02
2018-06-30T05:01:51.527Z,70.99
2018-06-30T05:02:23.119Z,71.06
2018-06-30T05:02:54.719Z,70.89
2018-06-30T05:03:26.350Z,71.05
2018-06-30T05:03:57.937Z,70.95
2018-06-30T05:04:29.533Z,70.97
2018-06-30T05:05:01.117Z,70.89
2018-06-30T05:05:32.692Z,70.94
2018-06-30T05:06:04.278Z,70.83
2018-06-30T05:06:35.886Z,70.80
2018-06-30T05:07:07.477Z,70.87
2018-06-30T05:07:39.085Z,70.80
2018-06-30T05:08:10.693Z,70.80
2018-06-30T05:08:42.349Z,70.72
2018-06-30T05:09:14.024Z,70.80
2018-06-30T05:09:45.592Z,70.83
2018-06-30T05:10:17.201Z,70.83
2018-06-30T05:10:48.795Z,70.78
2018-06-30T05:11:20.403Z,70.65
2018-06-30T05:11:52.014Z,70.82
2018-06-30T05:12:23.602Z,70.78
2018-06-30T05:12:55.237Z,70.75
2018-06-30T05:13:26.873Z,70.80
2018-06-30T05:13:58.458Z,70.76
2018-06-30T05:14:30.039Z,70.64
2018-06-30T05:15:01.651Z,70.62
2018-06-30T05:15:33.251Z,70.75
2018-06-30T05:16:04.858Z,70.65
2018-06-30T05:16:36.465Z,70.80
2018-06-30T05:17:08.064Z,70.72
2018-06-30T05:17:39.674Z,70.85
2018-06-30T05:18:11.272Z,70.94
2018-06-30T05:18:42.933Z,70.96
2018-06-30T05:19:14.508Z,71.05
2018-06-30T05:19:46.099Z,71.02
2018-06-30T05:20:17.686Z,71.12
2018-06-30T05:20:49.338Z,71.24
2018-06-30T05:21:20.945Z,71.21
2018-06-30T05:21:52.531Z,71.34
2018-06-30T05:22:24.124Z,71.40
2018-06-30T05:22:55.713Z,71.42
2018-06-30T05:23:27.311Z,71.58
2018-06-30T05:23:58.921Z,71.42
2018-06-30T05:24:30.570Z,71.59
2018-06-30T05:25:02.181Z,71.50
2018-06-30T05:25:33.794Z,71.56
2018-06-30T05:26:05.389Z,71.50
2018-06-30T05:26:36.986Z,71.60
2018-06-30T05:27:08.578Z,71.65
2018-06-30T05:27:40.158Z,71.65
2018-06-30T05:28:11.761Z,71.61
2018-06-30T05:28:43.355Z,71.68
2018-06-30T05:29:14.950Z,71.73
2018-06-30T05:29:46.547Z,71.71
2018-06-30T05:30:18.127Z,71.73
2018-06-30T05:30:49.718Z,71.71
2018-06-30T05:31:21.320Z,71.78
2018-06-30T05:31:52.950Z,71.73
2018-06-30T05:32:24.573Z,71.83
2018-06-30T05:32:56.145Z,71.92
2018-06-30T05:33:27.826Z,72.02
2018-06-30T05:33:59.359Z,72.15
2018-06-30T05:34:30.946Z,72.03
2018-06-30T05:35:02.530Z,71.98
2018-06-30T05:35:34.127Z,71.70
2018-06-30T05:36:05.710Z,71.86
2018-06-30T05:36:37.311Z,71.70
2018-06-30T05:37:08.969Z,71.58
2018-06-30T05:37:40.553Z,71.68
2018-06-30T05:38:12.202Z,71.71
2018-06-30T05:38:43.787Z,71.48
2018-06-30T05:39:15.370Z,71.53
2018-06-30T05:39:46.950Z,71.62
2018-06-30T05:40:18.519Z,71.52
2018-06-30T05:40:50.112Z,71.40
2018-06-30T05:41:21.721Z,71.20
2018-06-30T05:41:53.346Z,71.35
2018-06-30T05:42:24.940Z,71.38
2018-06-30T05:42:56.557Z,71.36
2018-06-30T05:43:28.145Z,71.27
2018-06-30T05:43:59.716Z,71.28
2018-06-30T05:44:31.283Z,71.17
2018-06-30T05:45:02.910Z,71.18
2018-06-30T05:45:34.494Z,71.10
2018-06-30T05:46:06.088Z,71.64
2018-06-30T05:46:37.693Z,71.64
2018-06-30T05:47:09.277Z,71.58
2018-06-30T05:47:40.884Z,71.55
2018-06-30T05:48:12.460Z,71.59
2018-06-30T05:48:44.061Z,71.52
2018-06-30T05:49:15.665Z,71.64
2018-06-30T05:49:47.249Z,71.64
2018-06-30T05:50:18.833Z,71.59
2018-06-30T05:50:50.461Z,71.63
2018-06-30T05:51:22.052Z,71.50
2018-06-30T05:51:53.637Z,71.49
2018-06-30T05:52:25.221Z,71.59
2018-06-30T05:52:56.806Z,71.32
2018-06-30T05:53:28.389Z,71.51
2018-06-30T05:53:59.958Z,71.44
2018-06-30T05:54:31.564Z,71.32
2018-06-30T05:55:03.136Z,71.34
2018-06-30T05:55:34.789Z,71.24
2018-06-30T05:56:06.378Z,71.40
2018-06-30T05:56:37.985Z,71.33
2018-06-30T05:57:09.568Z,71.34
2018-06-30T05:57:41.173Z,71.32
2018-06-30T05:58:12.781Z,71.32
2018-06-30T05:58:44.387Z,71.47
2018-06-30T05:59:16.014Z,71.36
2018-06-30T05:59:47.601Z,71.28
2018-06-30T06:00:19.168Z,71.20
2018-06-30T06:00:50.776Z,71.19
2018-06-30T06:01:22.372Z,71.31
2018-06-30T06:01:53.984Z,71.26
2018-06-30T06:02:25.569Z,71.19
2018-06-30T06:02:57.154Z,71.18
2018-06-30T06:03:28.756Z,71.14
2018-06-30T06:04:00.351Z,71.16
2018-06-30T06:04:31.933Z,71.25
2018-06-30T06:05:03.550Z,71.53
2018-06-30T06:05:35.119Z,71.20
2018-06-30T06:06:06.712Z,71.11
2018-06-30T06:06:38.317Z,71.31
2018-06-30T06:07:09.925Z,71.25
2018-06-30T06:07:41.510Z,71.21
2018-06-30T06:08:13.093Z,71.18
2018-06-30T06:08:44.668Z,71.15
2018-06-30T06:09:16.274Z,71.18
2018-06-30T06:09:47.959Z,71.18
2018-06-30T06:10:19.496Z,71.17
2018-06-30T06:10:51.068Z,71.17
2018-06-30T06:11:22.636Z,71.22
2018-06-30T06:11:54.262Z,71.14
2018-06-30T06:12:25.870Z,71.19
2018-06-30T06:12:57.468Z,71.14
2018-06-30T06:13:29.054Z,71.12
2018-06-30T06:14:00.625Z,71.17
2018-06-30T06:14:32.209Z,71.17
2018-06-30T06:15:03.822Z,71.13
2018-06-30T06:15:35.453Z,71.14
2018-06-30T06:16:07.033Z,71.21
2018-06-30T06:16:38.677Z,71.26
2018-06-30T06:17:10.320Z,71.30
2018-06-30T06:17:41.960Z,71.19
2018-06-30T06:18:13.577Z,71.24
2018-06-30T06:18:45.161Z,71.14
2018-06-30T06:19:16.774Z,71.09
2018-06-30T06:19:48.381Z,71.18
2018-06-30T06:20:19.962Z,71.16
2018-06-30T06:20:51.565Z,71.16
2018-06-30T06:21:23.153Z,71.13
2018-06-30T06:21:54.742Z,71.16
2018-06-30T06:22:26.345Z,71.25
2018-06-30T06:22:58.003Z,71.24
2018-06-30T06:23:29.590Z,71.16
2018-06-30T06:24:01.212Z,71.17
2018-06-30T06:24:32.821Z,71.07
2018-06-30T06:25:04.401Z,71.14
2018-06-30T06:25:35.971Z,71.09
2018-06-30T06:26:07.540Z,71.11
2018-06-30T06:26:39.117Z,71.12
2018-06-30T06:27:10.724Z,71.16
2018-06-30T06:27:42.361Z,71.07
2018-06-30T06:28:13.999Z,71.15
2018-06-30T06:28:45.585Z,71.23
2018-06-30T06:29:17.165Z,70.91
2018-06-30T06:29:48.765Z,70.79
2018-06-30T06:30:20.370Z,70.80
2018-06-30T06:30:51.986Z,70.78
2018-06-30T06:31:23.565Z,70.78
2018-06-30T06:31:55.160Z,70.81
2018-06-30T06:32:26.789Z,70.84
2018-06-30T06:32:58.402Z,70.78
2018-06-30T06:33:29.985Z,70.75
2018-06-30T06:34:01.570Z,70.70
2018-06-30T06:34:33.177Z,70.63
2018-06-30T06:35:04.765Z,70.49
2018-06-30T06:35:36.337Z,70.47
2018-06-30T06:36:07.918Z,70.45
2018-06-30T06:36:39.525Z,70.44
2018-06-30T06:37:11.115Z,70.39
2018-06-30T06:37:42.737Z,70.37
2018-06-30T06:38:14.322Z,70.28
2018-06-30T06:38:45.926Z,70.14
2018-06-30T06:39:17.514Z,70.09
2018-06-30T06:39:49.088Z,69.95
2018-06-30T06:40:20.851Z,69.85
2018-06-30T06:40:52.438Z,70.04
2018-06-30T06:41:24.022Z,70.11
2018-06-30T06:41:55.598Z,70.07
2018-06-30T06:42:27.191Z,69.75
2018-06-30T06:42:58.800Z,69.81
2018-06-30T06:43:30.376Z,69.77
2018-06-30T06:44:01.985Z,69.73
2018-06-30T06:44:33.600Z,69.48
2018-06-30T06:45:05.182Z,69.51
2018-06-30T06:45:36.805Z,69.37
2018-06-30T06:46:08.409Z,69.60
2018-06-30T06:46:39.997Z,69.39